Time;durP1;ratioP1;P1;durP2;ratioP2;P2;SDS_P1;SDS_P2;PMS_P1;PMS_P2;Temp;Humidity;BMP_temperature;BMP_pressure;BME280_temperature;BME280_humidity;BME280_pressure;Samples;Min_cycle;Max_cycle;Signal;HPM_P1;HPM_P2
2022/08/13 00:01:13;;;;;;;4.60;2.40;;;;;;;16.34;83.01;101907.31;4991896;28;20199;-50
2022/08/13 00:03:38;;;;;;;2.63;2.30;;;;;;;16.41;82.78;101905.22;4989992;28;20209;-52
2022/08/13 00:06:08;;;;;;;5.68;2.58;;;;;;;16.46;82.76;101911.28;4991170;28;20197;-50
2022/08/13 00:08:35;;;;;;;4.75;2.53;;;;;;;16.42;82.19;101898.84;4991783;28;20213;-51
2022/08/13 00:11:02;;;;;;;4.47;2.53;;;;;;;16.17;82.21;101894.56;4991504;28;20305;-51
2022/08/13 00:13:28;;;;;;;3.03;2.28;;;;;;;16.06;83.43;101892.31;4991304;28;20223;-50
2022/08/13 00:15:53;;;;;;;5.28;3.05;;;;;;;15.98;84.05;101899.00;4991656;28;20288;-51
2022/08/13 00:18:20;;;;;;;3.05;2.30;;;;;;;15.97;84.90;101886.47;4991233;28;20501;-50
2022/08/13 00:20:53;;;;;;;2.83;2.50;;;;;;;15.80;85.58;101884.50;4991473;28;20944;-51
2022/08/13 00:23:20;;;;;;;5.47;2.65;;;;;;;15.78;86.14;101883.66;4991006;28;20212;-49
2022/08/13 00:25:50;;;;;;;3.58;2.45;;;;;;;15.77;86.39;101884.63;4991739;28;20656;-50
2022/08/13 00:28:18;;;;;;;2.88;2.60;;;;;;;15.64;87.05;101895.03;4990807;28;20672;-50
2022/08/13 00:30:46;;;;;;;3.95;2.70;;;;;;;15.64;87.57;101886.94;4991077;28;20185;-50
2022/08/13 00:33:15;;;;;;;6.15;2.92;;;;;;;15.77;87.91;101893.59;4990666;28;20251;-49
2022/08/13 00:35:47;;;;;;;3.50;2.55;;;;;;;15.89;87.73;101883.22;4991170;28;20177;-49
2022/08/13 00:38:20;;;;;;;5.07;2.65;;;;;;;16.01;87.13;101891.66;4991178;28;20169;-49
2022/08/13 00:40:52;;;;;;;4.15;2.75;;;;;;;16.24;86.44;101884.34;4991009;28;20216;-50
2022/08/13 00:43:19;;;;;;;3.75;2.63;;;;;;;16.30;85.80;101881.38;4990759;28;20802;-51
2022/08/13 00:45:44;;;;;;;3.95;2.70;;;;;;;16.38;85.47;101879.19;4990974;28;20232;-47
2022/08/13 00:50:56;;;;;;;4.68;2.35;;;;;;;16.40;85.32;101887.25;4991320;28;20544;-49
2022/08/13 00:53:23;;;;;;;3.40;2.20;;;;;;;16.45;85.14;101888.78;4990422;28;20584;-50
2022/08/13 00:55:52;;;;;;;4.97;2.50;;;;;;;16.45;84.83;101879.78;4991082;28;20169;-48
2022/08/13 00:58:19;;;;;;;4.07;2.35;;;;;;;16.54;84.55;101881.19;4990888;28;20184;-48
2022/08/13 01:00:50;;;;;;;3.47;2.67;;;;;;;16.47;84.43;101881.47;4990852;28;20170;-51
2022/08/13 01:03:17;;;;;;;5.65;2.55;;;;;;;16.29;84.79;101876.91;4990530;28;20210;-48
2022/08/13 01:05:45;;;;;;;2.50;2.30;;;;;;;16.31;85.24;101883.13;4989844;28;20236;-49
2022/08/13 01:08:11;;;;;;;6.15;3.03;;;;;;;16.38;85.22;101886.44;4989796;28;20161;-47
2022/08/13 01:10:42;;;;;;;2.50;2.30;;;;;;;16.41;84.98;101878.16;4977816;28;20178;-47
2022/08/13 01:13:11;;;;;;;2.78;2.20;;;;;;;16.44;84.86;101876.22;4970980;28;20202;-49
2022/08/13 01:15:42;;;;;;;2.72;2.40;;;;;;;16.41;84.78;101875.47;4970007;28;20174;-49
2022/08/13 01:18:15;;;;;;;2.92;2.35;;;;;;;16.42;84.86;101880.81;4969297;28;20515;-49
2022/08/13 01:20:47;;;;;;;4.38;2.58;;;;;;;16.38;84.82;101881.91;4981098;28;20197;-49
2022/08/13 01:23:14;;;;;;;6.57;2.35;;;;;;;16.36;85.26;101882.94;4982736;28;20205;-49
2022/08/13 01:25:42;;;;;;;4.22;2.75;;;;;;;16.35;85.50;101876.63;4990537;28;20193;-49
2022/08/13 01:28:08;;;;;;;2.97;2.13;;;;;;;16.17;85.69;101870.22;4989236;28;20189;-51
2022/08/13 01:30:34;;;;;;;6.82;2.72;;;;;;;16.14;86.24;101880.31;4991737;28;20196;-51
2022/08/13 01:33:04;;;;;;;3.92;2.53;;;;;;;16.17;86.55;101878.34;4990330;28;20217;-50
2022/08/13 01:35:30;;;;;;;5.28;2.53;;;;;;;16.02;86.90;101874.47;4990989;28;20162;-50
2022/08/13 01:37:57;;;;;;;2.63;2.35;;;;;;;15.93;87.39;101874.91;4991021;28;20524;-50
2022/08/13 01:40:24;;;;;;;5.68;2.50;;;;;;;15.94;87.67;101871.25;4990745;28;20177;-51
2022/08/13 01:42:50;;;;;;;2.58;2.38;;;;;;;15.95;87.90;101881.13;4993212;28;20684;-50
2022/08/13 01:45:16;;;;;;;4.78;2.47;;;;;;;15.96;88.03;101873.88;4993394;28;20685;-49
2022/08/13 01:50:30;;;;;;;3.45;2.55;;;;;;;16.16;87.50;101882.00;4994299;28;20180;-51
2022/08/13 01:53:02;;;;;;;3.00;2.53;;;;;;;16.19;86.92;101873.72;4993888;28;20201;-50
2022/08/13 01:55:40;;;;;;;5.90;2.50;;;;;;;16.21;86.99;101874.53;4994189;28;20173;-51
2022/08/13 01:58:12;;;;;;;5.13;2.28;;;;;;;16.17;86.86;101866.66;4994053;28;20309;-52
2022/08/13 02:00:44;;;;;;;2.60;2.33;;;;;;;16.26;86.91;101874.34;4994185;28;20180;-51
2022/08/13 02:03:16;;;;;;;8.13;2.42;;;;;;;16.18;86.96;101868.38;4993405;28;20803;-53
2022/08/13 02:05:42;;;;;;;4.32;2.35;;;;;;;16.27;85.87;101868.00;4993973;28;20208;-49
2022/08/13 02:08:11;;;;;;;4.15;2.60;;;;;;;16.06;86.35;101865.28;4993463;28;20177;-50
2022/08/13 02:10:43;;;;;;;2.88;2.67;;;;;;;15.96;86.95;101858.56;4993805;28;20169;-50
2022/08/13 02:13:18;;;;;;;3.22;2.70;;;;;;;15.97;87.78;101864.84;4993119;28;20213;-50
2022/08/13 02:15:47;;;;;;;3.60;2.50;;;;;;;15.82;87.88;101872.66;4993901;28;20691;-50
2022/08/13 02:18:17;;;;;;;2.65;2.45;;;;;;;15.72;88.55;101859.63;4993452;28;20248;-49
2022/08/13 02:20:44;;;;;;;4.53;2.47;;;;;;;15.60;88.88;101858.28;4993403;28;20645;-50
2022/08/13 02:23:19;;;;;;;2.47;2.28;;;;;;;15.69;89.26;101859.72;4993424;28;20400;-51
2022/08/13 02:25:45;;;;;;;3.22;2.20;;;;;;;15.78;88.83;101862.06;4993290;28;20679;-51
2022/08/13 02:28:14;;;;;;;3.67;2.45;;;;;;;15.85;88.70;101867.13;4993342;28;20248;-50
2022/08/13 02:30:41;;;;;;;5.22;2.38;;;;;;;15.95;88.36;101864.91;4993036;28;20184;-51
2022/08/13 02:33:06;;;;;;;2.72;2.20;;;;;;;15.94;88.08;101865.84;4992941;28;20239;-52
2022/08/13 02:35:35;;;;;;;3.05;2.72;;;;;;;16.03;87.80;101865.44;4993078;28;20256;-50
2022/08/13 02:38:00;;;;;;;3.53;2.63;;;;;;;16.05;87.47;101868.97;4993216;28;20265;-50
2022/08/13 02:43:10;;;;;;;2.35;2.15;;;;;;;16.06;87.24;101859.88;4992529;28;20196;-51
2022/08/13 02:45:35;;;;;;;2.60;2.40;;;;;;;15.80;87.66;101866.44;4993272;28;20285;-47
2022/08/13 02:48:01;;;;;;;3.20;2.30;;;;;;;15.86;87.76;101862.59;4975510;28;20567;-48
2022/08/13 02:50:27;;;;;;;4.30;2.50;;;;;;;15.76;88.26;101855.84;4993173;28;20720;-51
2022/08/13 02:52:53;;;;;;;4.40;2.40;;;;;;;15.52;88.76;101855.91;4992003;28;20190;-51
2022/08/13 02:55:20;;;;;;;4.32;2.70;;;;;;;15.37;90.12;101862.84;4992120;28;20174;-49
2022/08/13 02:57:50;;;;;;;2.63;2.42;;;;;;;15.53;90.13;101859.50;4993091;28;20173;-51
2022/08/13 03:00:19;;;;;;;4.07;2.53;;;;;;;15.48;90.14;101864.22;4992590;28;20191;-51
2022/08/13 03:02:45;;;;;;;2.88;2.38;;;;;;;15.64;89.95;101858.09;4992704;28;20205;-49
2022/08/13 03:05:18;;;;;;;6.65;2.72;;;;;;;15.57;89.60;101867.41;4992212;28;20232;-51
2022/08/13 03:07:47;;;;;;;5.20;2.70;;;;;;;15.58;89.50;101860.19;4993137;28;20189;-51
2022/08/13 03:10:15;;;;;;;2.67;2.30;;;;;;;15.62;89.40;101859.13;4993237;28;20189;-52
2022/08/13 03:12:44;;;;;;;4.47;2.47;;;;;;;15.62;89.38;101864.50;4992201;28;20212;-52
2022/08/13 03:15:12;;;;;;;2.65;2.45;;;;;;;15.71;89.43;101871.34;4992245;28;20177;-53
2022/08/13 03:17:39;;;;;;;3.50;2.60;;;;;;;15.62;89.32;101865.38;4992244;28;20717;-51
2022/08/13 03:20:15;;;;;;;3.17;2.55;;;;;;;15.56;89.42;101860.25;4975021;28;20277;-52
2022/08/13 03:22:56;;;;;;;3.00;2.28;;;;;;;15.60;89.36;101866.41;4972703;28;20292;-50
2022/08/13 03:25:25;;;;;;;2.60;2.40;;;;;;;15.63;89.36;101861.75;4972597;28;20248;-51
2022/08/13 03:27:53;;;;;;;4.22;2.40;;;;;;;15.53;89.25;101849.56;4980996;28;20570;-50
2022/08/13 03:30:21;;;;;;;3.15;2.38;;;;;;;15.51;89.12;101862.28;4983851;28;20489;-53
2022/08/13 03:32:48;;;;;;;4.15;2.50;;;;;;;15.48;89.41;101857.00;4991975;28;20611;-51
2022/08/13 03:35:24;;;;;;;3.13;2.33;;;;;;;15.40;89.81;101861.84;4991817;28;20174;-51
2022/08/13 03:37:53;;;;;;;4.40;2.47;;;;;;;15.42;89.98;101863.53;4992235;28;20189;-50
2022/08/13 03:40:24;;;;;;;3.05;2.42;;;;;;;15.44;90.25;101855.38;4992121;28;20199;-51
2022/08/13 03:42:50;;;;;;;2.90;2.60;;;;;;;15.41;89.96;101858.19;4992085;28;20257;-49
2022/08/13 03:45:17;;;;;;;4.43;2.70;;;;;;;15.26;90.09;101854.28;4991208;28;20201;-50
2022/08/13 03:47:44;;;;;;;2.85;2.65;;;;;;;15.38;90.46;101852.94;4991784;28;20212;-50
2022/08/13 03:50:11;;;;;;;2.63;2.40;;;;;;;15.38;90.05;101866.44;4991666;28;20213;-51
2022/08/13 03:52:37;;;;;;;3.03;2.72;;;;;;;15.34;90.00;101868.38;4991386;28;20223;-50
2022/08/13 03:55:09;;;;;;;3.13;2.55;;;;;;;15.30;89.85;101860.47;4991402;28;20713;-50
2022/08/13 03:57:41;;;;;;;2.58;2.10;;;;;;;15.29;90.27;101862.28;4991388;28;20288;-50
2022/08/13 04:00:10;;;;;;;3.50;2.50;;;;;;;15.30;90.21;101869.44;4990390;28;20165;-52
2022/08/13 04:02:41;;;;;;;3.13;2.40;;;;;;;15.28;90.59;101865.91;4991409;28;20185;-51
2022/08/13 04:05:16;;;;;;;2.80;2.40;;;;;;;15.22;90.51;101858.09;4990139;28;20202;-51
2022/08/13 04:07:43;;;;;;;3.92;2.50;;;;;;;15.27;90.49;101856.06;4990169;28;20177;-51
2022/08/13 04:10:11;;;;;;;3.80;2.35;;;;;;;15.28;90.54;101860.50;4991015;28;20506;-50
2022/08/13 04:12:37;;;;;;;4.93;2.72;;;;;;;15.23;90.83;101866.09;4991205;28;20193;-51
2022/08/13 04:15:03;;;;;;;3.25;2.75;;;;;;;15.13;90.74;101867.44;4990767;28;20182;-51
2022/08/13 04:17:29;;;;;;;3.97;2.50;;;;;;;15.17;90.73;101860.94;4991324;28;20325;-52
2022/08/13 04:19:57;;;;;;;7.63;2.70;;;;;;;15.16;91.17;101870.00;4989637;28;20257;-50
2022/08/13 04:22:24;;;;;;;3.97;2.40;;;;;;;15.17;91.18;101863.66;4991260;28;20197;-51
2022/08/13 04:24:50;;;;;;;3.30;2.42;;;;;;;15.15;91.08;101852.06;4990682;28;20206;-52
2022/08/13 04:27:15;;;;;;;3.92;2.55;;;;;;;15.14;91.29;101857.53;4990739;28;20612;-52
2022/08/13 04:29:41;;;;;;;2.90;2.70;;;;;;;15.18;91.45;101860.03;4990927;28;20288;-52
2022/08/13 04:32:06;;;;;;;2.92;2.72;;;;;;;15.21;91.49;101859.88;4990230;28;20180;-52
2022/08/13 04:34:32;;;;;;;4.30;2.92;;;;;;;15.27;91.39;101866.00;4990194;28;20189;-53
2022/08/13 04:36:57;;;;;;;4.00;2.65;;;;;;;15.27;91.16;101861.47;4990513;28;20181;-51
2022/08/13 04:39:24;;;;;;;3.20;2.67;;;;;;;15.30;91.02;101853.22;4990631;28;20645;-51
2022/08/13 04:41:50;;;;;;;3.20;2.90;;;;;;;15.35;91.00;101858.44;4990366;28;20181;-51
2022/08/13 04:44:16;;;;;;;3.20;2.78;;;;;;;15.40;90.69;101856.44;4989651;28;20209;-50
2022/08/13 04:46:42;;;;;;;4.50;2.60;;;;;;;15.32;91.24;101858.59;4990469;28;20181;-52
2022/08/13 04:49:11;;;;;;;4.10;2.50;;;;;;;15.58;91.47;101858.34;4990398;28;20268;-51
2022/08/13 04:51:37;;;;;;;2.85;2.33;;;;;;;15.91;91.34;101857.88;4990833;28;20186;-51
2022/08/13 04:54:02;;;;;;;5.97;2.53;;;;;;;16.15;90.51;101860.44;4989862;28;20280;-52
2022/08/13 04:56:29;;;;;;;5.07;2.45;;;;;;;16.38;89.44;101856.69;4990552;28;20356;-51
2022/08/13 04:58:55;;;;;;;3.28;2.72;;;;;;;16.59;88.26;101857.50;4990625;28;20546;-49
2022/08/13 05:01:21;;;;;;;4.88;2.40;;;;;;;16.88;87.22;101842.63;4990414;28;20188;-52
2022/08/13 05:03:47;;;;;;;2.60;2.17;;;;;;;17.03;85.94;101846.38;4989873;28;20240;-50
2022/08/13 05:06:18;;;;;;;3.25;2.47;;;;;;;17.27;84.82;101856.03;4990443;28;20300;-50
2022/08/13 05:08:49;;;;;;;2.63;2.42;;;;;;;17.40;84.28;101856.25;4990752;28;20598;-52
2022/08/13 05:11:17;;;;;;;3.13;2.30;;;;;;;17.45;83.96;101854.22;4990313;28;20177;-51
2022/08/13 05:13:43;;;;;;;3.30;2.45;;;;;;;17.50;83.93;101864.81;4989650;28;20198;-51
2022/08/13 05:16:12;;;;;;;4.35;2.70;;;;;;;17.52;83.85;101851.22;4991434;28;20253;-52
2022/08/13 05:18:42;;;;;;;3.08;2.30;;;;;;;17.50;83.55;101862.13;4994242;28;20182;-50
2022/08/13 05:21:11;;;;;;;3.03;2.17;;;;;;;17.46;83.69;101850.53;4994729;28;20524;-53
2022/08/13 05:23:40;;;;;;;2.85;2.53;;;;;;;17.57;83.79;101846.41;4994367;28;20606;-51
2022/08/13 05:26:06;;;;;;;2.83;2.63;;;;;;;17.68;83.67;101866.56;4993331;28;20201;-51
2022/08/13 05:28:32;;;;;;;4.53;2.30;;;;;;;17.76;83.67;101849.94;4975333;28;20654;-52
2022/08/13 05:30:59;;;;;;;4.25;2.40;;;;;;;17.83;83.71;101847.81;4973722;28;20283;-50
2022/08/13 05:33:29;;;;;;;5.55;2.30;;;;;;;17.84;83.52;101860.38;4974993;28;20198;-52
2022/08/13 05:35:57;;;;;;;2.70;2.38;;;;;;;17.95;83.50;101852.59;4974978;28;20314;-50
2022/08/13 05:38:25;;;;;;;2.72;2.40;;;;;;;18.10;82.73;101857.22;4975277;28;20569;-50
2022/08/13 05:40:54;;;;;;;3.75;2.42;;;;;;;18.29;82.81;101859.78;4974421;28;20717;-51
2022/08/13 05:43:23;;;;;;;3.55;2.00;;;;;;;18.42;82.31;101857.28;4974654;28;20737;-49
2022/08/13 05:45:59;;;;;;;2.75;2.20;;;;;;;18.58;82.28;101856.44;4974573;28;20650;-53
2022/08/13 05:48:32;;;;;;;4.10;2.10;;;;;;;18.81;81.94;101853.34;4975167;28;20487;-51
2022/08/13 05:50:59;;;;;;;4.63;2.60;;;;;;;19.05;81.38;101844.78;4974655;28;20166;-50
2022/08/13 05:53:26;;;;;;;3.83;2.40;;;;;;;19.41;80.42;101847.16;4974447;28;20253;-52
2022/08/13 05:55:55;;;;;;;3.10;2.15;;;;;;;19.62;78.85;101842.28;4974978;28;20654;-49
2022/08/13 05:58:22;;;;;;;3.30;2.33;;;;;;;19.95;78.27;101846.69;4974876;28;20181;-52
2022/08/13 06:03:35;;;;;;;3.20;2.25;;;;;;;20.19;76.43;101838.84;4974101;28;20554;-51
2022/08/13 06:06:09;;;;;;;7.18;2.75;;;;;;;20.29;74.95;101840.00;4974810;28;20209;-50
2022/08/13 06:08:38;;;;;;;4.65;2.78;;;;;;;19.89;75.17;101828.00;4974442;28;20649;-53
2022/08/13 06:11:10;;;;;;;4.93;2.75;;;;;;;19.76;76.04;101827.88;4974757;28;20264;-50
2022/08/13 06:13:40;;;;;;;4.22;2.60;;;;;;;20.16;75.57;101836.31;4974283;28;20264;-52
2022/08/13 06:16:08;;;;;;;9.82;2.95;;;;;;;20.14;75.84;101839.13;4974639;28;20273;-50
2022/08/13 06:18:35;;;;;;;7.78;2.65;;;;;;;20.11;75.60;101839.28;4973141;28;20645;-50
2022/08/13 06:21:04;;;;;;;2.67;2.22;;;;;;;20.07;75.90;101832.31;4974298;28;20193;-51
2022/08/13 06:23:34;;;;;;;2.80;2.50;;;;;;;20.31;74.74;101843.53;4973944;28;20635;-52
2022/08/13 06:26:01;;;;;;;6.80;2.58;;;;;;;20.56;74.43;101836.50;4973932;28;20248;-51
2022/08/13 06:28:29;;;;;;;3.05;2.15;;;;;;;21.05;73.11;101829.72;4973636;28;20220;-49
2022/08/13 06:30:58;;;;;;;4.53;2.45;;;;;;;21.18;72.48;101842.41;4974753;28;20189;-49
2022/08/13 06:33:25;;;;;;;7.75;2.30;;;;;;;21.59;70.89;101848.81;4973786;28;20304;-50
2022/08/13 06:36:15;;;;;;;4.43;2.40;;;;;;;21.85;69.88;101837.97;4974368;28;20181;-50
2022/08/13 06:38:43;;;;;;;3.70;2.40;;;;;;;21.47;70.80;101847.81;4973255;28;20208;-51
2022/08/13 06:41:10;;;;;;;5.18;2.78;;;;;;;21.71;71.36;101841.63;4973507;28;20667;-52
2022/08/13 06:43:43;;;;;;;6.25;2.58;;;;;;;21.89;71.67;101834.03;4972861;28;20240;-50
2022/08/13 06:46:11;;;;;;;5.43;2.22;;;;;;;22.15;71.96;101843.09;4973472;28;20304;-50
2022/08/13 06:48:39;;;;;;;3.30;2.20;;;;;;;22.38;70.05;101838.75;4955999;28;20192;-50
2022/08/13 06:51:07;;;;;;;4.43;2.83;;;;;;;22.90;69.24;101845.88;4973577;28;20499;-51
2022/08/13 06:53:35;;;;;;;6.10;2.42;;;;;;;22.68;67.85;101841.13;4972647;28;20298;-51
2022/08/13 06:56:11;;;;;;;6.97;2.72;;;;;;;22.80;68.04;101844.78;4973109;28;20904;-51
2022/08/13 06:58:38;;;;;;;4.50;2.60;;;;;;;22.40;68.00;101842.25;4973600;28;20186;-50
2022/08/13 07:01:04;;;;;;;4.57;2.20;;;;;;;22.48;67.31;101837.13;4973124;28;20612;-49
2022/08/13 07:03:32;;;;;;;4.60;2.58;;;;;;;22.85;67.59;101834.41;4972497;28;20197;-50
2022/08/13 07:05:58;;;;;;;5.38;2.58;;;;;;;23.05;66.70;101832.97;4973038;28;20244;-50
2022/08/13 07:08:26;;;;;;;4.40;2.33;;;;;;;23.80;65.49;101842.75;4973018;28;20201;-49
2022/08/13 07:13:44;;;;;;;3.60;2.42;;;;;;;24.64;63.23;101837.88;4972406;28;20622;-48
2022/08/13 07:16:14;;;;;;;3.30;2.28;;;;;;;24.71;62.06;101832.78;4972831;28;20182;-52
2022/08/13 07:18:40;;;;;;;3.38;2.15;;;;;;;24.47;62.19;101837.38;4972655;28;20184;-49
2022/08/13 07:21:10;;;;;;;4.32;2.25;;;;;;;24.77;61.33;101835.00;4972942;28;20185;-50
2022/08/13 07:23:41;;;;;;;7.18;2.58;;;;;;;25.07;60.95;101831.59;4972665;28;20515;-50
2022/08/13 07:26:08;;;;;;;4.75;2.55;;;;;;;25.26;60.52;101825.47;4972640;28;20197;-48
2022/08/13 07:28:34;;;;;;;2.80;2.35;;;;;;;24.56;61.45;101840.41;4973395;28;20182;-47
2022/08/13 07:31:05;;;;;;;6.88;2.53;;;;;;;25.15;61.40;101834.56;4972945;28;20614;-49
2022/08/13 07:33:34;;;;;;;3.33;2.15;;;;;;;24.94;60.63;101830.88;4972871;28;20206;-49
2022/08/13 07:36:03;;;;;;;6.43;2.85;;;;;;;24.94;60.37;101820.78;4972594;28;20177;-48
2022/08/13 07:38:31;;;;;;;8.40;2.88;;;;;;;25.31;60.83;101834.16;4973045;28;20200;-48
2022/08/13 07:41:00;;;;;;;5.80;2.58;;;;;;;25.78;60.85;101826.47;4972989;28;20173;-50
2022/08/13 07:43:26;;;;;;;7.05;2.78;;;;;;;26.00;60.01;101831.00;4972838;28;20255;-50
2022/08/13 07:46:07;;;;;;;3.47;2.47;;;;;;;26.21;59.20;101835.59;4972588;28;20209;-48
2022/08/13 07:48:34;;;;;;;5.72;2.95;;;;;;;25.90;59.16;101830.91;4972625;28;20579;-51
2022/08/13 07:51:01;;;;;;;7.68;2.75;;;;;;;25.95;59.09;101830.50;4972699;28;20186;-48
2022/08/13 07:53:28;;;;;;;7.80;2.72;;;;;;;26.05;59.34;101836.06;4972220;28;20201;-48
2022/08/13 07:55:54;;;;;;;5.80;2.65;;;;;;;25.91;59.49;101842.78;4972502;28;20201;-52
2022/08/13 07:58:23;;;;;;;8.35;2.80;;;;;;;25.89;59.49;101831.94;4972483;28;20178;-49
2022/08/13 08:00:48;;;;;;;9.20;2.50;;;;;;;26.05;59.98;101847.94;4971068;28;20192;-49
2022/08/13 08:03:15;;;;;;;5.80;2.80;;;;;;;26.13;58.54;101841.78;4972178;28;20198;-50
2022/08/13 08:05:44;;;;;;;4.32;2.78;;;;;;;25.89;59.12;101836.56;4972074;28;20585;-48
2022/08/13 08:08:11;;;;;;;7.55;3.15;;;;;;;25.89;60.05;101847.53;4972430;28;20178;-48
2022/08/13 08:10:39;;;;;;;6.43;3.22;;;;;;;25.74;59.66;101835.97;4972162;28;20177;-49
2022/08/13 08:13:08;;;;;;;4.72;2.30;;;;;;;26.10;59.10;101839.28;4971849;28;20205;-49
2022/08/13 08:15:35;;;;;;;5.25;2.40;;;;;;;25.76;58.77;101844.06;4972277;28;20204;-50
2022/08/13 08:18:01;;;;;;;7.75;2.45;;;;;;;25.50;59.69;101858.19;4971943;28;20559;-49
2022/08/13 08:20:28;;;;;;;4.80;2.47;;;;;;;26.08;58.49;101844.91;4972158;28;20280;-48
2022/08/13 08:22:54;;;;;;;8.05;2.33;;;;;;;26.01;58.12;101851.06;4971861;28;20211;-51
2022/08/13 08:25:21;;;;;;;8.90;2.75;;;;;;;26.63;57.30;101854.75;4971626;28;20224;-49
2022/08/13 08:27:49;;;;;;;5.63;2.58;;;;;;;25.92;58.84;101850.00;4971684;28;20681;-51
2022/08/13 08:30:20;;;;;;;5.82;2.35;;;;;;;25.61;60.30;101851.78;4971975;28;20178;-48
2022/08/13 08:32:54;;;;;;;2.47;2.28;;;;;;;25.72;60.32;101861.81;4970886;28;20201;-48
2022/08/13 08:35:20;;;;;;;3.70;2.20;;;;;;;25.57;61.45;101866.75;4971629;28;20205;-48
2022/08/13 08:43:31;;;;;;;5.57;2.65;;;;;;;25.47;60.72;101866.66;4971345;28;20580;-51
2022/08/13 08:45:57;;;;;;;4.53;2.22;;;;;;;25.69;59.81;101863.84;4971601;28;20295;-49
2022/08/13 08:48:23;;;;;;;7.05;2.30;;;;;;;25.78;59.12;101861.28;4971753;28;20189;-48
2022/08/13 08:50:49;;;;;;;6.95;2.65;;;;;;;25.46;59.44;101865.78;4973694;28;20310;-49
2022/08/13 08:53:19;;;;;;;3.90;2.20;;;;;;;25.21;59.45;101856.03;4977914;28;20657;-49
2022/08/13 08:55:45;;;;;;;4.65;2.30;;;;;;;25.19;60.62;101868.06;4978292;28;20177;-49
2022/08/13 08:58:12;;;;;;;4.35;2.38;;;;;;;25.16;60.33;101857.38;4977955;28;20177;-46
2022/08/13 09:00:39;;;;;;;4.80;2.17;;;;;;;25.27;60.53;101860.13;4977986;28;20645;-45
2022/08/13 09:03:07;;;;;;;5.32;2.30;;;;;;;25.25;60.65;101863.00;4976501;28;20235;-47
2022/08/13 09:05:33;;;;;;;5.47;2.53;;;;;;;25.27;60.88;101868.34;4978141;28;20238;-45
2022/08/13 09:08:06;;;;;;;4.57;2.55;;;;;;;25.40;60.17;101863.56;4978234;28;20205;-47
2022/08/13 09:10:34;;;;;;;3.30;2.28;;;;;;;25.26;60.34;101863.88;4977743;28;20529;-45
2022/08/13 09:13:02;;;;;;;7.80;2.40;;;;;;;25.29;60.45;101860.84;4976499;28;20276;-49
2022/08/13 09:15:29;;;;;;;4.78;2.17;;;;;;;25.30;60.84;101859.88;4976619;28;20547;-47
2022/08/13 09:17:55;;;;;;;6.50;2.30;;;;;;;25.15;60.91;101863.88;4977996;28;20162;-47
2022/08/13 09:20:23;;;;;;;4.10;2.35;;;;;;;24.85;62.92;101870.91;4978075;28;20182;-48
2022/08/13 09:23:07;;;;;;;5.40;2.55;;;;;;;25.14;64.53;101862.13;4977748;28;20240;-48
2022/08/13 09:25:34;;;;;;;7.45;2.45;;;;;;;25.00;66.46;101861.41;4977937;28;20676;-51
2022/08/13 09:28:00;;;;;;;6.88;2.63;;;;;;;25.45;67.18;101853.09;4976161;28;20189;-48
2022/08/13 09:30:26;;;;;;;8.30;2.50;;;;;;;25.34;68.20;101858.59;4978338;28;20181;-49
2022/08/13 09:32:57;;;;;;;9.00;2.50;;;;;;;25.59;69.61;101854.63;4977869;28;20599;-47
2022/08/13 09:35:26;;;;;;;5.60;2.60;;;;;;;25.31;70.33;101855.25;4977754;28;20728;-48
2022/08/13 09:37:57;;;;;;;4.88;2.17;;;;;;;25.43;68.86;101855.09;4978129;28;20166;-47
2022/08/13 09:40:26;;;;;;;6.80;2.50;;;;;;;25.58;68.49;101850.16;4977312;28;20232;-48
2022/08/13 09:43:06;;;;;;;5.38;2.30;;;;;;;25.93;68.02;101853.63;4977988;28;20201;-49
2022/08/13 09:45:34;;;;;;;5.00;2.63;;;;;;;26.28;66.62;101845.91;4977649;28;20209;-50
2022/08/13 09:48:00;;;;;;;7.43;2.58;;;;;;;26.17;66.30;101848.69;4977683;28;20247;-49
2022/08/13 09:50:26;;;;;;;5.15;2.40;;;;;;;25.85;66.91;101846.03;4977620;28;20256;-50
2022/08/13 09:52:52;;;;;;;5.95;2.10;;;;;;;25.98;66.55;101851.34;4984313;28;20207;-47
2022/08/13 09:55:25;;;;;;;5.38;2.65;;;;;;;26.12;66.37;101848.25;4979330;28;20182;-49
2022/08/13 09:57:59;;;;;;;6.85;2.70;;;;;;;26.08;65.35;101839.41;4992695;28;20266;-48
2022/08/13 10:00:27;;;;;;;6.32;2.60;;;;;;;25.95;65.22;101836.00;4997224;28;20180;-48
2022/08/13 10:02:59;;;;;;;7.18;2.72;;;;;;;25.99;65.19;101836.59;4993299;28;20204;-46
2022/08/13 10:05:32;;;;;;;8.07;2.58;;;;;;;25.97;64.57;101833.13;4993815;28;20691;-49
2022/08/13 10:08:03;;;;;;;9.93;2.55;;;;;;;26.23;61.92;101825.31;4993929;28;20371;-48
2022/08/13 10:10:29;;;;;;;4.07;2.65;;;;;;;26.00;62.96;101827.34;4994255;28;20665;-48
2022/08/13 10:12:54;;;;;;;8.23;2.80;;;;;;;26.09;63.38;101829.31;4994028;28;20846;-50
2022/08/13 10:15:20;;;;;;;5.10;2.45;;;;;;;26.21;61.21;101835.59;4993892;28;20365;-48
2022/08/13 10:18:00;;;;;;;7.25;2.70;;;;;;;26.38;60.39;101828.59;4992572;28;20275;-46
2022/08/13 10:20:34;;;;;;;3.35;2.38;;;;;;;26.35;60.85;101835.22;4993521;28;20183;-48
2022/08/13 10:23:01;;;;;;;6.43;2.20;;;;;;;25.94;59.78;101820.53;4993794;28;20308;-48
2022/08/13 10:25:28;;;;;;;5.53;2.38;;;;;;;25.91;61.24;101818.06;4993287;28;20258;-50
2022/08/13 10:27:54;;;;;;;5.75;2.47;;;;;;;25.84;61.77;101819.56;4994078;28;20211;-48
2022/08/13 10:30:24;;;;;;;7.30;2.72;;;;;;;25.21;63.08;101816.75;4993710;28;20280;-47
2022/08/13 10:32:50;;;;;;;7.10;2.47;;;;;;;25.19;64.51;101808.66;4993223;28;20244;-49
2022/08/13 10:35:17;;;;;;;4.72;2.55;;;;;;;24.44;67.66;101825.78;4993449;28;20188;-47
2022/08/13 10:37:45;;;;;;;6.40;2.60;;;;;;;24.57;69.63;101804.63;4993020;28;20177;-45
2022/08/13 10:40:13;;;;;;;6.82;2.38;;;;;;;25.08;68.41;101801.31;4993544;28;20274;-46
2022/08/13 10:42:39;;;;;;;5.13;2.40;;;;;;;26.05;64.83;101795.75;4993163;28;20279;-47
2022/08/13 10:45:05;;;;;;;3.80;2.30;;;;;;;26.82;63.46;101785.22;4992696;28;20660;-47
2022/08/13 10:47:31;;;;;;;2.35;1.65;;;;;;;27.61;54.83;101787.00;4993156;28;20188;-48
2022/08/13 10:49:58;;;;;;;3.28;1.83;;;;;;;27.66;54.33;101781.94;4993251;28;20177;-46
2022/08/13 10:52:24;;;;;;;3.33;1.63;;;;;;;28.46;46.43;101776.91;4993172;28;20201;-47
2022/08/13 10:54:49;;;;;;;5.38;1.75;;;;;;;29.34;45.12;101775.38;4992550;28;20185;-51
2022/08/13 10:57:15;;;;;;;3.90;1.75;;;;;;;29.54;43.46;101764.13;4992835;28;20180;-46
2022/08/13 10:59:43;;;;;;;7.53;1.75;;;;;;;29.29;43.36;101768.59;4993076;28;20188;-50
2022/08/13 11:02:09;;;;;;;2.40;1.30;;;;;;;29.81;43.67;101771.44;4991452;28;20255;-49
2022/08/13 11:04:36;;;;;;;4.50;1.30;;;;;;;29.54;43.15;101777.94;4992759;28;20208;-46
2022/08/13 11:07:10;;;;;;;4.00;1.48;;;;;;;30.06;42.37;101764.16;4992453;28;20177;-48
2022/08/13 11:09:37;;;;;;;3.17;1.70;;;;;;;29.96;41.32;101763.44;4992971;28;20204;-45
2022/08/13 11:12:03;;;;;;;4.50;1.58;;;;;;;30.05;40.50;101767.97;4992445;28;20227;-49
2022/08/13 11:14:29;;;;;;;1.88;1.50;;;;;;;30.51;40.15;101768.56;4992120;28;20211;-51
2022/08/13 11:19:25;;;;;;;2.75;1.45;;;;;;;30.50;38.75;101769.63;4992759;28;20192;-48
2022/08/13 11:21:51;;;;;;;4.10;1.58;;;;;;;30.22;38.32;101765.28;4992782;28;20177;-46
2022/08/13 11:24:18;;;;;;;3.28;1.60;;;;;;;30.04;38.73;101769.00;4992128;28;20275;-50
2022/08/13 11:26:45;;;;;;;6.25;1.65;;;;;;;30.33;39.23;101765.91;4991916;28;20207;-49
2022/08/13 11:29:11;;;;;;;2.72;1.50;;;;;;;29.94;38.16;101776.53;4992722;28;20165;-45
2022/08/13 11:31:37;;;;;;;1.85;1.50;;;;;;;29.99;37.65;101763.97;4992300;28;20189;-48
2022/08/13 11:34:03;;;;;;;5.93;1.50;;;;;;;29.88;37.49;101768.91;4992137;28;20208;-48
2022/08/13 11:36:28;;;;;;;4.28;1.30;;;;;;;29.53;37.94;101756.88;4992580;28;20282;-48
2022/08/13 11:38:54;;;;;;;5.85;1.67;;;;;;;29.83;38.10;101761.09;4992215;28;20181;-52
2022/08/13 11:41:20;;;;;;;2.45;1.40;;;;;;;29.96;38.17;101764.28;4992182;28;20177;-47
2022/08/13 11:43:46;;;;;;;7.57;1.67;;;;;;;30.28;38.76;101756.38;4991916;28;20258;-48
2022/08/13 11:46:11;;;;;;;7.78;1.75;;;;;;;30.41;37.95;101751.25;4992225;28;20213;-47
2022/08/13 11:48:39;;;;;;;9.15;1.67;;;;;;;29.65;37.89;101758.38;4991787;28;20161;-45
2022/08/13 11:51:04;;;;;;;3.42;1.40;;;;;;;29.99;38.65;101761.19;4992154;28;20665;-49